Terminal Aerodrome Forecast
Issued by NWS Paducah, KY

Home | Current Version | Previous Version | Text Only | Print | Product List | Glossary On
Versions: 1 2 3 4 5 6 7 8 9 10 11 12 13 14 15 16
000
FTUS43 KPAH 090520
TAFEVV
TAF
KEVV 090520Z 0906/1006 22003KT P6SM SCT050 BKN100
     FM091100 24006KT P6SM SCT025 BKN050
     FM091400 26012G20KT P6SM OVC025
      TEMPO 0914/0916 -SN
     FM091800 30015G25KT P6SM BKN030
     FM100000 29007KT P6SM SCT035=

USA.gov is the U.S. government's official web portal to all federal, state and local government web resources and services.